sensor_id;sensor_type;location;lat;lon;timestamp;pressure;altitude;pressure_sealevel;temperature;humidity
29163;BME280;20331;53.144;8.208;2023-01-28T00:03:49;103178.50;;;3.31;76.76
29163;BME280;20331;53.144;8.208;2023-01-28T00:14:13;103180.81;;;3.25;75.74
29163;BME280;20331;53.144;8.208;2023-01-28T00:24:35;103171.28;;;3.21;76.55
29163;BME280;20331;53.144;8.208;2023-01-28T00:34:56;103155.66;;;3.14;76.18
29163;BME280;20331;53.144;8.208;2023-01-28T00:45:17;103164.94;;;3.12;76.14
29163;BME280;20331;53.144;8.208;2023-01-28T00:55:39;103179.50;;;3.13;76.52
29163;BME280;20331;53.144;8.208;2023-01-28T01:06:00;103166.47;;;3.06;77.75
29163;BME280;20331;53.144;8.208;2023-01-28T01:16:23;103163.91;;;3.06;76.34
29163;BME280;20331;53.144;8.208;2023-01-28T01:26:44;103181.56;;;3.00;76.52
29163;BME280;20331;53.144;8.208;2023-01-28T01:37:06;103159.28;;;2.96;75.60
29163;BME280;20331;53.144;8.208;2023-01-28T01:47:37;103170.19;;;2.92;77.19
29163;BME280;20331;53.144;8.208;2023-01-28T01:58:01;103180.34;;;2.91;76.45
29163;BME280;20331;53.144;8.208;2023-01-28T02:08:24;103189.59;;;2.87;77.08
29163;BME280;20331;53.144;8.208;2023-01-28T02:18:46;103177.34;;;2.80;77.00
29163;BME280;20331;53.144;8.208;2023-01-28T02:29:25;103187.22;;;2.71;77.03
29163;BME280;20331;53.144;8.208;2023-01-28T02:39:48;103190.41;;;2.66;77.63
29163;BME280;20331;53.144;8.208;2023-01-28T02:50:13;103177.50;;;2.63;77.34
29163;BME280;20331;53.144;8.208;2023-01-28T03:11:03;103176.66;;;2.42;77.96
29163;BME280;20331;53.144;8.208;2023-01-28T03:21:43;103189.16;;;2.36;77.95
29163;BME280;20331;53.144;8.208;2023-01-28T03:32:24;103182.78;;;2.26;78.04
29163;BME280;20331;53.144;8.208;2023-01-28T03:43:04;103186.84;;;2.21;79.08
29163;BME280;20331;53.144;8.208;2023-01-28T03:53:26;103187.63;;;2.20;78.86
29163;BME280;20331;53.144;8.208;2023-01-28T04:03:48;103176.19;;;2.11;79.80
29163;BME280;20331;53.144;8.208;2023-01-28T04:14:09;103177.22;;;1.95;79.44
29163;BME280;20331;53.144;8.208;2023-01-28T04:24:31;103190.41;;;1.85;80.68
29163;BME280;20331;53.144;8.208;2023-01-28T04:34:52;103184.69;;;1.71;81.63
29163;BME280;20331;53.144;8.208;2023-01-28T04:45:13;103184.34;;;1.64;81.83
29163;BME280;20331;53.144;8.208;2023-01-28T04:55:35;103175.47;;;1.56;81.47
29163;BME280;20331;53.144;8.208;2023-01-28T05:05:57;103160.72;;;1.68;81.64
29163;BME280;20331;53.144;8.208;2023-01-28T05:16:18;103156.94;;;1.60;81.09
29163;BME280;20331;53.144;8.208;2023-01-28T05:26:40;103150.50;;;1.49;81.15
29163;BME280;20331;53.144;8.208;2023-01-28T05:37:01;103146.06;;;1.45;81.93
29163;BME280;20331;53.144;8.208;2023-01-28T05:47:23;103147.53;;;1.40;81.51
29163;BME280;20331;53.144;8.208;2023-01-28T05:57:44;103136.34;;;1.36;81.58
29163;BME280;20331;53.144;8.208;2023-01-28T06:08:05;103142.03;;;1.31;82.23
29163;BME280;20331;53.144;8.208;2023-01-28T06:18:27;103129.00;;;1.25;81.76
29163;BME280;20331;53.144;8.208;2023-01-28T06:28:48;103134.78;;;1.21;81.68
29163;BME280;20331;53.144;8.208;2023-01-28T06:39:10;103127.81;;;1.17;80.52
29163;BME280;20331;53.144;8.208;2023-01-28T06:49:31;103153.75;;;1.08;80.22
29163;BME280;20331;53.144;8.208;2023-01-28T06:59:52;103153.00;;;1.11;80.75
29163;BME280;20331;53.144;8.208;2023-01-28T07:10:14;103172.38;;;1.07;81.46
29163;BME280;20331;53.144;8.208;2023-01-28T07:20:36;103191.91;;;1.07;81.28
29163;BME280;20331;53.144;8.208;2023-01-28T07:30:58;103199.53;;;1.07;81.17
29163;BME280;20331;53.144;8.208;2023-01-28T07:41:19;103202.09;;;1.07;82.02
29163;BME280;20331;53.144;8.208;2023-01-28T07:51:40;103221.47;;;1.03;82.10
29163;BME280;20331;53.144;8.208;2023-01-28T08:02:02;103203.63;;;1.03;81.38
29163;BME280;20331;53.144;8.208;2023-01-28T08:12:23;103210.63;;;1.07;81.45
29163;BME280;20331;53.144;8.208;2023-01-28T08:22:45;103213.97;;;0.88;80.68
29163;BME280;20331;53.144;8.208;2023-01-28T08:33:07;103219.88;;;0.87;81.94
29163;BME280;20331;53.144;8.208;2023-01-28T08:43:29;103214.25;;;0.94;81.01
29163;BME280;20331;53.144;8.208;2023-01-28T08:53:50;103246.38;;;1.09;81.75
29163;BME280;20331;53.144;8.208;2023-01-28T09:04:11;103271.13;;;1.29;80.91
29163;BME280;20331;53.144;8.208;2023-01-28T09:14:33;103278.44;;;1.58;80.33
29163;BME280;20331;53.144;8.208;2023-01-28T09:24:54;103282.78;;;1.78;78.97
29163;BME280;20331;53.144;8.208;2023-01-28T09:35:16;103294.63;;;1.95;78.99
29163;BME280;20331;53.144;8.208;2023-01-28T09:56:03;103279.72;;;2.04;78.09
29163;BME280;20331;53.144;8.208;2023-01-28T10:17:25;103265.94;;;2.20;78.52
29163;BME280;20331;53.144;8.208;2023-01-28T10:27:44;103240.88;;;2.30;78.26
29163;BME280;20331;53.144;8.208;2023-01-28T10:38:08;103220.91;;;2.61;77.79
29163;BME280;20331;53.144;8.208;2023-01-28T10:48:35;103208.03;;;2.80;76.96
29163;BME280;20331;53.144;8.208;2023-01-28T11:09:21;103168.22;;;2.85;78.15
29163;BME280;20331;53.144;8.208;2023-01-28T11:19:42;103111.47;;;2.95;76.79
29163;BME280;20331;53.144;8.208;2023-01-28T11:30:04;103137.16;;;2.98;77.08
29163;BME280;20331;53.144;8.208;2023-01-28T11:40:28;103150.47;;;3.12;76.99
29163;BME280;20331;53.144;8.208;2023-01-28T11:50:51;103164.09;;;3.33;76.49
29163;BME280;20331;53.144;8.208;2023-01-28T13:04:17;103054.56;;;4.50;76.55
29163;BME280;20331;53.144;8.208;2023-01-28T13:14:45;103056.94;;;4.44;75.44
29163;BME280;20331;53.144;8.208;2023-01-28T13:25:12;103077.06;;;4.32;76.39
29163;BME280;20331;53.144;8.208;2023-01-28T13:35:38;103064.94;;;4.55;75.72
29163;BME280;20331;53.144;8.208;2023-01-28T13:46:01;103067.75;;;4.62;74.59
29163;BME280;20331;53.144;8.208;2023-01-28T13:56:24;103062.22;;;4.77;76.69
29163;BME280;20331;53.144;8.208;2023-01-28T14:06:51;103058.22;;;4.86;76.47
29163;BME280;20331;53.144;8.208;2023-01-28T14:27:48;103073.88;;;4.95;76.79
29163;BME280;20331;53.144;8.208;2023-01-28T14:38:13;103053.34;;;4.95;77.27
29163;BME280;20331;53.144;8.208;2023-01-28T14:48:39;103105.63;;;4.99;76.99
29163;BME280;20331;53.144;8.208;2023-01-28T14:59:22;103093.69;;;4.99;77.82
29163;BME280;20331;53.144;8.208;2023-01-28T15:09:45;103109.84;;;4.97;78.37
29163;BME280;20331;53.144;8.208;2023-01-28T15:20:07;103087.63;;;4.97;77.78
29163;BME280;20331;53.144;8.208;2023-01-28T15:30:30;103092.84;;;5.00;77.78
29163;BME280;20331;53.144;8.208;2023-01-28T15:51:18;103047.31;;;4.93;80.13
29163;BME280;20331;53.144;8.208;2023-01-28T16:01:40;103040.81;;;4.76;80.65
29163;BME280;20331;53.144;8.208;2023-01-28T16:12:10;103050.13;;;4.73;80.66
29163;BME280;20331;53.144;8.208;2023-01-28T16:22:38;103066.56;;;4.79;81.16
29163;BME280;20331;53.144;8.208;2023-01-28T16:33:02;103063.97;;;4.78;80.00
29163;BME280;20331;53.144;8.208;2023-01-28T16:43:23;103077.50;;;4.74;80.26
29163;BME280;20331;53.144;8.208;2023-01-28T16:53:45;103081.81;;;4.75;81.29
29163;BME280;20331;53.144;8.208;2023-01-28T17:04:07;103074.22;;;4.78;81.38
29163;BME280;20331;53.144;8.208;2023-01-28T17:14:32;103075.00;;;4.75;81.22
29163;BME280;20331;53.144;8.208;2023-01-28T17:24:54;103110.00;;;4.75;80.52
29163;BME280;20331;53.144;8.208;2023-01-28T17:35:15;103101.44;;;4.74;81.84
29163;BME280;20331;53.144;8.208;2023-01-28T17:45:37;103118.44;;;4.71;81.26
29163;BME280;20331;53.144;8.208;2023-01-28T17:55:59;103119.31;;;4.71;81.54
29163;BME280;20331;53.144;8.208;2023-01-28T18:06:20;103125.34;;;4.73;81.80
29163;BME280;20331;53.144;8.208;2023-01-28T18:16:42;103120.94;;;4.69;81.52
29163;BME280;20331;53.144;8.208;2023-01-28T18:27:04;103115.69;;;4.65;81.12
29163;BME280;20331;53.144;8.208;2023-01-28T18:37:25;103117.31;;;4.61;81.55
29163;BME280;20331;53.144;8.208;2023-01-28T18:47:46;103132.41;;;4.52;81.66
29163;BME280;20331;53.144;8.208;2023-01-28T18:58:08;103111.06;;;4.53;82.02
29163;BME280;20331;53.144;8.208;2023-01-28T19:08:30;103105.84;;;4.50;82.02
29163;BME280;20331;53.144;8.208;2023-01-28T19:18:53;103092.22;;;4.53;81.18
29163;BME280;20331;53.144;8.208;2023-01-28T19:29:15;103067.19;;;4.44;81.70
29163;BME280;20331;53.144;8.208;2023-01-28T19:39:36;103083.97;;;4.35;81.66
29163;BME280;20331;53.144;8.208;2023-01-28T19:49:58;103083.00;;;4.31;82.05
29163;BME280;20331;53.144;8.208;2023-01-28T20:00:20;103094.38;;;4.39;82.62
29163;BME280;20331;53.144;8.208;2023-01-28T20:10:41;103090.25;;;4.44;83.25
29163;BME280;20331;53.144;8.208;2023-01-28T20:21:02;103065.50;;;4.45;83.51
29163;BME280;20331;53.144;8.208;2023-01-28T20:31:27;103078.38;;;4.46;83.56
29163;BME280;20331;53.144;8.208;2023-01-28T20:41:48;103068.19;;;4.49;83.45
29163;BME280;20331;53.144;8.208;2023-01-28T20:52:10;103060.41;;;4.46;84.12
29163;BME280;20331;53.144;8.208;2023-01-28T21:02:31;103051.91;;;4.47;83.31
29163;BME280;20331;53.144;8.208;2023-01-28T21:12:55;103074.16;;;4.48;83.60
29163;BME280;20331;53.144;8.208;2023-01-28T21:23:17;103051.09;;;4.48;83.50
29163;BME280;20331;53.144;8.208;2023-01-28T21:33:38;103060.50;;;4.49;83.85
29163;BME280;20331;53.144;8.208;2023-01-28T21:43:59;103046.66;;;4.43;83.92
29163;BME280;20331;53.144;8.208;2023-01-28T21:54:21;103041.47;;;4.41;83.76
29163;BME280;20331;53.144;8.208;2023-01-28T22:04:43;103046.31;;;4.32;84.19
29163;BME280;20331;53.144;8.208;2023-01-28T22:15:06;103048.81;;;4.31;83.42
29163;BME280;20331;53.144;8.208;2023-01-28T22:25:28;103045.41;;;4.30;83.85
29163;BME280;20331;53.144;8.208;2023-01-28T22:35:49;103023.31;;;4.34;83.76
29163;BME280;20331;53.144;8.208;2023-01-28T22:46:11;103006.97;;;4.30;83.27
29163;BME280;20331;53.144;8.208;2023-01-28T22:56:32;102983.66;;;4.23;83.67
29163;BME280;20331;53.144;8.208;2023-01-28T23:06:54;102985.13;;;4.15;83.39
29163;BME280;20331;53.144;8.208;2023-01-28T23:17:15;102966.94;;;4.07;83.94
29163;BME280;20331;53.144;8.208;2023-01-28T23:27:55;102974.25;;;3.95;83.98
29163;BME280;20331;53.144;8.208;2023-01-28T23:38:16;103000.59;;;3.91;84.10
29163;BME280;20331;53.144;8.208;2023-01-28T23:48:38;102999.56;;;3.86;84.07
29163;BME280;20331;53.144;8.208;2023-01-28T23:58:59;103008.97;;;3.87;84.38
